This is the latest recevied weather packets stored in our database for station/object F4ETJ-1. If no packets are shown the sender has not sent any weather packets the latest 10 day(s).
| Time | Temp. | Humidity | Pressure | Rain* | Wind** | Luminosity | Snow |
|---|---|---|---|---|---|---|---|
| 1778072707 | 13.33° C | 90% | 1008.3 hPa | 3.81 mm | - | - | - |
| 1778072347 | 13.33° C | 89% | 1008.3 hPa | 3.56 mm | - | - | - |
| 1778071986 | 13.33° C | 88% | 1008.3 hPa | 3.05 mm | - | - | - |
| 1778071626 | 13.89° C | 87% | 1008.3 hPa | 0.76 mm | - | - | - |
| 1778071266 | 14.44° C | 87% | 1008.2 hPa | 0.25 mm | - | - | - |
| 1778070905 | 14.44° C | 87% | 1008.2 hPa | 0.25 mm | - | - | - |
| 1778070545 | 14.44° C | 87% | 1008.1 hPa | 0 mm | - | - | - |
| 1778070185 | 14.44° C | 86% | 1008.2 hPa | 0 mm | - | - | - |
| 1778069825 | 14.44° C | 87% | 1008.1 hPa | 0.25 mm | - | - | - |
| 1778069464 | 13.89° C | 88% | 1008.1 hPa | 1.27 mm | - | - | - |
| 1778069104 | 13.89° C | 88% | 1008.1 hPa | 2.03 mm | - | - | - |
| 1778068743 | 13.89° C | 89% | 1008.1 hPa | 2.54 mm | - | - | - |
| 1778068383 | 13.89° C | 90% | 1008.2 hPa | 2.79 mm | - | - | - |
| 1778068023 | 13.33° C | 90% | 1008.1 hPa | 2.79 mm | - | - | - |
| 1778067662 | 13.33° C | 91% | 1008.2 hPa | 2.79 mm | - | - | - |
| 1778067302 | 13.33° C | 91% | 1008.2 hPa | 2.79 mm | - | - | - |
| 1778066942 | 12.78° C | 91% | 1008.2 hPa | 2.79 mm | - | - | - |
| 1778066581 | 12.78° C | 91% | 1008.1 hPa | 3.05 mm | - | - | - |
| 1778066221 | 12.78° C | 92% | 1008.1 hPa | 2.79 mm | - | - | - |
| 1778065860 | 12.78° C | 92% | 1008.1 hPa | 1.78 mm | - | - | - |
| 1778065501 | 12.78° C | 91% | 1008.2 hPa | 1.02 mm | - | - | - |
| 1778065140 | 12.78° C | 92% | 1008.1 hPa | 0.51 mm | - | - | - |
| 1778064780 | 12.78° C | 91% | 1008 hPa | 0.25 mm | - | - | - |
| 1778064419 | 12.78° C | 90% | 1008 hPa | 0.25 mm | - | - | - |
| 1778064059 | 12.78° C | 90% | 1007.9 hPa | 0.25 mm | - | - | - |
* Rain latest hour (hover to see other rain measurements)
** Current wind speed in m/s (hover to see current wind gust speed)